Time;durP1;ratioP1;P1;durP2;ratioP2;P2;SDS_P1;SDS_P2;PMS_P1;PMS_P2;Temp;Humidity;BMP_temperature;BMP_pressure;BME280_temperature;BME280_humidity;BME280_pressure;Samples;Min_cycle;Max_cycle;Signal;HPM_P1;HPM_P2
2022/04/01 00:01:32;;;;;;;2.75;2.17;;;;;;;19.94;42.86;94897.94;10319311;28;20057;-58
2022/04/01 00:06:51;;;;;;;2.40;1.90;;;;;;;19.91;42.79;94890.56;10270458;28;20494;-59
2022/04/01 00:12:11;;;;;;;3.20;2.13;;;;;;;19.91;42.83;94895.97;10295226;28;20497;-58
2022/04/01 00:17:30;;;;;;;3.78;2.33;;;;;;;19.90;42.85;94891.72;10293796;28;20058;-59
2022/04/01 00:22:50;;;;;;;2.67;2.10;;;;;;;19.88;42.82;94888.63;10294489;28;20059;-58
2022/04/01 00:28:10;;;;;;;3.28;2.00;;;;;;;19.89;42.75;94883.97;10297117;28;20063;-59
2022/04/01 00:33:31;;;;;;;2.80;2.17;;;;;;;19.87;42.77;94884.34;10294449;28;20054;-59
2022/04/01 00:38:50;;;;;;;2.95;2.00;;;;;;;19.85;42.59;94881.25;10294039;28;20498;-57
2022/04/01 00:44:25;;;;;;;2.95;1.95;;;;;;;19.84;42.72;94877.00;10293634;28;20506;-59
2022/04/01 00:49:47;;;;;;;2.70;1.80;;;;;;;19.83;42.76;94883.53;10293852;28;20058;-59
2022/04/01 00:55:08;;;;;;;2.67;2.10;;;;;;;19.81;42.54;94883.13;10292758;28;20051;-59
2022/04/01 01:00:28;;;;;;;2.67;1.95;;;;;;;19.81;42.60;94880.44;10294847;28;20078;-59
2022/04/01 01:05:48;;;;;;;3.63;1.80;;;;;;;19.79;42.47;94874.63;10299622;28;20050;-58
2022/04/01 01:11:09;;;;;;;2.85;2.10;;;;;;;19.78;42.56;94872.28;10293023;28;20046;-58
2022/04/01 01:16:29;;;;;;;2.67;1.85;;;;;;;19.77;42.66;94871.53;10292364;28;20422;-58
2022/04/01 01:21:51;;;;;;;2.10;1.90;;;;;;;19.76;42.53;94869.97;10281516;28;20051;-58
2022/04/01 01:27:13;;;;;;;2.03;1.65;;;;;;;19.75;42.55;94868.41;10250947;28;20458;-57
2022/04/01 01:32:34;;;;;;;2.17;1.75;;;;;;;19.73;42.54;94868.78;10265031;28;20039;-59
2022/04/01 01:37:54;;;;;;;1.95;1.77;;;;;;;19.72;42.52;94866.47;10264734;28;20055;-58
2022/04/01 01:43:14;;;;;;;2.45;1.70;;;;;;;19.70;42.55;94861.41;10251861;29;20491;-58
2022/04/01 01:48:34;;;;;;;1.90;1.67;;;;;;;19.70;42.41;94857.94;10262791;28;20050;-58
2022/04/01 01:59:33;;;;;;;1.70;1.60;;;;;;;19.67;42.42;94847.88;10250787;28;20043;-58
2022/04/01 02:04:52;;;;;;;2.30;1.63;;;;;;;19.65;42.29;94845.53;10267379;28;20063;-59
2022/04/01 02:10:12;;;;;;;2.00;1.80;;;;;;;19.65;42.27;94839.34;10250941;29;20088;-58
2022/04/01 02:15:33;;;;;;;2.08;1.80;;;;;;;19.63;42.25;94837.03;10249979;29;20658;-58
2022/04/01 02:20:53;;;;;;;2.05;1.83;;;;;;;19.62;42.35;94834.69;10250204;29;20051;-58
2022/04/01 02:26:13;;;;;;;1.67;1.45;;;;;;;19.60;42.32;94831.56;10268348;28;20067;-58
2022/04/01 02:31:33;;;;;;;2.30;1.80;;;;;;;19.60;42.39;94831.56;10285425;28;20047;-58
2022/04/01 02:37:11;;;;;;;1.75;1.63;;;;;;;19.59;42.35;94828.09;10282494;28;20069;-58
2022/04/01 02:42:31;;;;;;;2.88;1.60;;;;;;;19.56;42.25;94826.94;10275070;28;20462;-59
2022/04/01 02:47:51;;;;;;;2.53;1.60;;;;;;;19.56;42.32;94834.25;10287559;28;20058;-58
2022/04/01 02:53:11;;;;;;;1.77;1.40;;;;;;;19.54;42.13;94829.22;10288693;28;20062;-59
2022/04/01 02:58:31;;;;;;;1.85;1.40;;;;;;;19.53;42.19;94837.69;10282445;28;20042;-59
2022/04/01 03:03:51;;;;;;;1.45;1.25;;;;;;;19.52;42.19;94833.44;10273737;28;20101;-58
2022/04/01 03:09:14;;;;;;;2.20;1.50;;;;;;;19.50;42.09;94844.63;10274453;28;20058;-59
2022/04/01 03:14:41;;;;;;;2.08;1.55;;;;;;;19.49;42.07;94843.06;10286403;28;20034;-59
2022/04/01 03:20:19;;;;;;;1.60;1.40;;;;;;;19.48;42.14;94849.63;10288101;28;20058;-59
2022/04/01 03:25:42;;;;;;;3.70;1.60;;;;;;;19.46;42.22;94846.50;10276916;28;20055;-58
2022/04/01 03:31:10;;;;;;;1.52;1.30;;;;;;;19.46;42.14;94849.19;10321970;28;20051;-58
2022/04/01 03:36:32;;;;;;;1.75;1.50;;;;;;;19.45;42.06;94852.28;10273277;28;20066;-57
2022/04/01 03:41:52;;;;;;;1.92;1.63;;;;;;;19.42;42.07;94848.38;10286442;28;20042;-58
2022/04/01 03:47:18;;;;;;;1.30;1.20;;;;;;;19.42;42.11;94859.19;10273619;28;20693;-58
2022/04/01 03:52:38;;;;;;;1.70;1.60;;;;;;;19.41;42.02;94857.66;10273405;28;20139;-58
2022/04/01 03:58:08;;;;;;;1.50;1.40;;;;;;;19.41;42.15;94849.53;10300929;28;20062;-58
2022/04/01 04:03:56;;;;;;;1.40;1.30;;;;;;;19.41;41.99;94840.69;10288989;28;20047;-59
2022/04/01 04:09:16;;;;;;;1.50;1.30;;;;;;;19.40;42.20;94836.41;10286607;28;20050;-59
2022/04/01 04:14:39;;;;;;;1.58;1.25;;;;;;;19.38;42.43;94836.78;10278090;28;20054;-59
2022/04/01 04:20:06;;;;;;;1.50;1.30;;;;;;;19.39;42.92;94843.75;10278831;28;20055;-58
2022/04/01 04:25:34;;;;;;;1.60;1.38;;;;;;;19.40;42.73;94850.69;10277592;28;20620;-56
2022/04/01 04:31:02;;;;;;;2.47;1.23;;;;;;;19.41;42.76;94852.25;10268622;28;20042;-59
2022/04/01 04:36:42;;;;;;;1.25;1.15;;;;;;;19.42;43.11;94840.28;10293128;28;20245;-59
2022/04/01 04:42:04;;;;;;;2.38;1.40;;;;;;;19.46;43.21;94851.13;10276930;28;20070;-58
2022/04/01 04:47:32;;;;;;;3.97;1.48;;;;;;;19.50;43.49;94860.03;10277222;28;20039;-58
2022/04/01 04:52:53;;;;;;;2.50;1.50;;;;;;;19.52;43.71;94873.94;10294237;28;20094;-58
2022/04/01 04:58:14;;;;;;;5.68;2.78;;;;;;;19.52;42.37;94876.66;10278847;28;20553;-57
2022/04/01 05:03:52;;;;;;;4.22;1.95;;;;;;;19.43;40.84;94866.16;10290532;28;20043;-58
2022/04/01 05:09:31;;;;;;;;;;;;;;;19.46;42.39;94870.78;10272820;28;20043;-58
2022/04/01 05:15:11;;;;;;;8.63;2.78;;;;;;;19.53;42.05;94878.97;10272104;28;19926;-58
2022/04/01 05:20:35;;;;;;;7.30;2.95;;;;;;;19.59;42.16;94871.31;10288722;28;20051;-59
2022/04/01 05:25:58;;;;;;;6.05;2.75;;;;;;;19.64;42.25;94881.00;10268276;28;20058;-58
2022/04/01 05:31:45;;;;;;;11.25;3.00;;;;;;;19.68;42.13;94879.13;10288314;28;20256;-58
2022/04/01 05:37:05;;;;;;;;;;;;;;;19.73;42.29;94884.22;10302228;28;20047;-59
2022/04/01 05:42:27;;;;;;;10.05;2.92;;;;;;;19.77;42.13;94879.63;10277434;28;20277;-59
2022/04/01 05:48:01;;;;;;;7.53;2.72;;;;;;;19.81;42.11;94879.66;10276535;28;20110;-58
2022/04/01 05:53:22;;;;;;;7.40;2.80;;;;;;;19.84;42.17;94878.94;10277030;28;20063;-58
2022/04/01 05:58:44;;;;;;;9.45;3.00;;;;;;;19.87;42.01;94884.34;10263279;28;20066;-59
2022/04/01 06:04:48;;;;;;;8.50;3.25;;;;;;;19.90;42.12;94894.44;10308952;28;20446;-58
2022/04/01 06:10:14;;;;;;;6.80;3.17;;;;;;;19.92;42.04;94899.47;10260132;28;20050;-59
2022/04/01 06:16:20;;;;;;;8.45;2.97;;;;;;;19.93;42.00;94907.22;10278082;28;20417;-58
2022/04/01 06:22:22;;;;;;;6.25;2.78;;;;;;;19.96;41.81;94916.50;10289190;28;20081;-59
2022/04/01 06:27:47;;;;;;;7.97;3.13;;;;;;;19.99;41.98;94923.06;10257595;28;20078;-58
2022/04/01 06:33:29;;;;;;;7.53;2.80;;;;;;;20.00;41.84;94930.03;10245628;29;20061;-57
2022/04/01 06:39:26;;;;;;;6.63;2.72;;;;;;;20.01;41.98;94931.56;10203063;29;20517;-58
2022/04/01 06:44:47;;;;;;;5.50;2.97;;;;;;;20.02;41.80;94930.44;10247398;29;20554;-58
2022/04/01 06:50:38;;;;;;;6.38;2.90;;;;;;;20.03;41.83;94940.09;10223952;28;20495;-59
2022/04/01 06:56:37;;;;;;;5.27;2.57;;;;;;;20.03;41.76;94946.28;10165012;29;20416;-58
2022/04/01 07:01:56;;;;;;;4.38;2.25;;;;;;;20.05;41.78;94954.00;10241199;28;20114;-58
2022/04/01 07:07:15;;;;;;;7.38;2.80;;;;;;;20.05;41.74;94965.63;10249244;29;20582;-59
2022/04/01 07:12:35;;;;;;;4.38;2.40;;;;;;;20.06;41.69;94956.34;10261602;28;20039;-58
2022/04/01 07:17:54;;;;;;;4.70;2.45;;;;;;;20.06;41.76;94950.16;10248417;29;20399;-59
2022/04/01 07:23:15;;;;;;;3.95;2.45;;;;;;;20.05;41.65;94946.69;10248056;29;20063;-59
2022/04/01 07:28:34;;;;;;;4.00;2.20;;;;;;;20.06;41.67;94956.34;10301380;28;20065;-58
2022/04/01 07:33:54;;;;;;;4.25;2.67;;;;;;;20.06;41.63;94944.75;10304327;28;20054;-58
2022/04/01 07:39:15;;;;;;;5.10;2.35;;;;;;;20.06;41.53;94955.56;10277576;28;20053;-58
2022/04/01 07:44:35;;;;;;;4.00;2.13;;;;;;;20.05;41.54;94946.69;10287950;28;20054;-59
2022/04/01 07:49:54;;;;;;;3.35;2.28;;;;;;;20.05;41.45;94949.41;10307433;28;20047;-58
2022/04/01 07:55:16;;;;;;;3.33;2.10;;;;;;;20.06;41.64;94958.28;10296094;28;20086;-58
2022/04/01 08:00:35;;;;;;;5.38;2.35;;;;;;;20.05;41.60;94954.00;10298651;28;20481;-59
2022/04/01 08:05:55;;;;;;;4.53;2.25;;;;;;;20.06;41.40;94972.56;10301477;28;20055;-59
2022/04/01 08:11:14;;;;;;;3.58;2.00;;;;;;;20.06;41.56;94966.38;10295510;28;20106;-58
2022/04/01 08:16:33;;;;;;;4.32;2.45;;;;;;;20.05;41.50;94972.94;10294650;28;20050;-59
2022/04/01 08:21:54;;;;;;;5.32;2.03;;;;;;;20.05;41.34;94975.63;10294769;28;20046;-58
2022/04/01 08:27:14;;;;;;;3.22;2.30;;;;;;;20.05;41.38;94983.75;10298741;28;20457;-58
2022/04/01 08:32:35;;;;;;;3.25;2.00;;;;;;;20.04;41.22;94976.78;10270585;28;20046;-58
2022/04/01 08:37:57;;;;;;;2.53;1.80;;;;;;;20.04;41.35;94984.91;10307005;28;20046;-57
2022/04/01 08:43:28;;;;;;;3.92;2.15;;;;;;;20.03;41.17;94994.16;10279658;28;20062;-59
2022/04/01 08:48:50;;;;;;;4.53;2.35;;;;;;;20.02;41.24;95008.81;10294061;28;20418;-56
2022/04/01 08:54:09;;;;;;;3.75;2.00;;;;;;;20.01;41.17;94999.16;10306642;28;20042;-58
2022/04/01 08:59:31;;;;;;;2.25;1.92;;;;;;;20.02;41.18;95006.13;10304855;28;20043;-59
2022/04/01 09:05:03;;;;;;;3.90;2.10;;;;;;;20.00;41.10;95011.91;10300662;28;20054;-58
2022/04/01 09:10:22;;;;;;;4.10;1.70;;;;;;;20.00;41.12;95001.09;10292917;28;20101;-59
2022/04/01 09:15:43;;;;;;;2.83;1.90;;;;;;;20.00;41.05;95011.13;10292251;28;20054;-59
2022/04/01 09:21:03;;;;;;;3.13;2.05;;;;;;;19.99;41.17;95012.25;10292222;28;20042;-58
2022/04/01 09:26:33;;;;;;;3.05;1.75;;;;;;;19.99;41.09;95014.97;10296396;28;20050;-58
2022/04/01 09:31:53;;;;;;;2.70;1.70;;;;;;;19.99;41.17;95013.03;10283276;28;20043;-58
2022/04/01 09:37:13;;;;;;;2.83;1.70;;;;;;;19.98;41.26;95010.72;10291405;28;20057;-59
2022/04/01 09:42:33;;;;;;;2.30;1.48;;;;;;;19.99;41.06;95014.97;10292029;28;20058;-59
2022/04/01 09:48:07;;;;;;;4.57;2.17;;;;;;;19.97;41.00;95034.25;10291928;28;20051;-58
2022/04/01 09:53:28;;;;;;;3.05;1.70;;;;;;;19.97;41.22;95028.06;10304249;28;20045;-58
2022/04/01 09:58:48;;;;;;;2.78;1.65;;;;;;;19.97;41.13;95038.88;10291359;28;20055;-59
2022/04/01 10:04:08;;;;;;;2.50;1.77;;;;;;;19.95;41.33;95039.25;10321873;28;20043;-59
2022/04/01 10:09:29;;;;;;;2.58;1.80;;;;;;;19.94;41.05;95043.88;10290571;28;20058;-57
2022/04/01 10:14:51;;;;;;;2.28;1.80;;;;;;;19.93;40.95;95039.63;10288442;28;20043;-58
2022/04/01 10:20:13;;;;;;;2.15;1.70;;;;;;;19.91;41.21;95044.59;10289156;28;20488;-59
2022/04/01 10:25:37;;;;;;;2.13;1.50;;;;;;;19.91;41.02;95038.41;10289394;28;20058;-58
2022/04/01 10:30:59;;;;;;;2.63;1.55;;;;;;;19.90;41.00;95042.28;10299873;28;20051;-58
2022/04/01 10:36:22;;;;;;;2.35;1.73;;;;;;;19.89;41.01;95048.81;10289480;28;20070;-59
2022/04/01 10:42:06;;;;;;;3.30;1.75;;;;;;;19.88;41.05;95048.06;10289152;28;20051;-58
2022/04/01 10:53:45;;;;;;;2.30;1.65;;;;;;;19.87;41.07;95048.41;10302223;28;20039;-58
2022/04/01 10:59:11;;;;;;;2.08;1.40;;;;;;;19.85;41.02;95048.78;10279125;28;20534;-58
2022/04/01 11:04:37;;;;;;;2.15;1.60;;;;;;;19.84;41.10;95054.56;10290791;28;20058;-59
2022/04/01 11:10:00;;;;;;;2.60;1.70;;;;;;;19.84;41.04;95051.88;10289201;28;20070;-58
2022/04/01 11:15:25;;;;;;;2.08;1.85;;;;;;;19.82;40.97;95054.94;10300904;28;20042;-58
2022/04/01 11:20:55;;;;;;;1.58;1.40;;;;;;;19.81;40.98;95064.16;10287767;28;20046;-58
2022/04/01 11:26:14;;;;;;;2.28;1.73;;;;;;;19.81;41.11;95064.16;10269456;28;20066;-58
2022/04/01 11:31:39;;;;;;;2.17;1.70;;;;;;;19.81;41.09;95074.97;10321982;28;20043;-58
2022/04/01 11:37:00;;;;;;;1.83;1.40;;;;;;;19.79;41.17;95071.88;10269343;28;20458;-59
2022/04/01 11:42:20;;;;;;;2.50;1.60;;;;;;;19.77;41.03;95068.75;10301003;28;20047;-58
2022/04/01 11:47:39;;;;;;;2.55;1.70;;;;;;;19.77;41.10;95073.38;10288229;28;20482;-58
2022/04/01 11:52:59;;;;;;;1.48;1.30;;;;;;;19.75;40.99;95069.13;10288104;28;20051;-58
2022/04/01 11:58:19;;;;;;;1.90;1.35;;;;;;;19.75;41.05;95079.94;10287473;28;20050;-58
2022/04/01 12:03:39;;;;;;;1.63;1.45;;;;;;;19.73;41.11;95076.81;10300286;28;20055;-59
2022/04/01 12:09:05;;;;;;;2.20;1.40;;;;;;;19.73;41.12;95078.75;10300539;28;20086;-58
2022/04/01 12:14:25;;;;;;;2.08;1.45;;;;;;;19.71;41.06;95081.81;10272527;28;20422;-58
2022/04/01 12:19:45;;;;;;;2.10;1.35;;;;;;;19.70;41.00;95085.63;10287446;28;20051;-59
2022/04/01 12:25:06;;;;;;;1.90;1.55;;;;;;;19.70;40.96;95084.88;10286990;28;20525;-58
2022/04/01 12:30:43;;;;;;;1.90;1.40;;;;;;;19.68;41.05;95089.84;10292502;28;20055;-59
2022/04/01 12:36:07;;;;;;;1.42;1.10;;;;;;;19.66;40.85;95094.81;10293068;28;20552;-58
2022/04/01 12:41:27;;;;;;;2.38;1.48;;;;;;;19.67;41.05;95101.78;10293676;28;20066;-57
2022/04/01 12:46:48;;;;;;;1.50;1.40;;;;;;;19.65;40.86;95104.09;10293825;28;20113;-58
2022/04/01 12:52:16;;;;;;;1.70;1.45;;;;;;;19.63;40.94;95104.44;10294208;28;20054;-58
2022/04/01 12:57:40;;;;;;;2.10;1.50;;;;;;;19.63;40.94;95107.16;10293930;28;20109;-58
2022/04/01 13:03:03;;;;;;;2.15;1.40;;;;;;;19.62;40.83;95107.50;10301112;28;20058;-58
2022/04/01 13:08:32;;;;;;;1.23;1.13;;;;;;;19.59;41.00;95113.66;10270455;28;20051;-58
2022/04/01 13:13:52;;;;;;;1.35;1.10;;;;;;;19.59;40.95;95111.72;10293072;28;20062;-58
2022/04/01 13:19:20;;;;;;;1.65;1.40;;;;;;;19.58;40.89;95118.25;10292560;28;20051;-58
2022/04/01 13:24:48;;;;;;;1.95;1.30;;;;;;;19.58;40.84;95125.59;10300683;28;20051;-58
2022/04/01 13:30:08;;;;;;;1.63;1.33;;;;;;;19.55;41.05;95127.88;10292402;28;20066;-58
2022/04/01 13:35:29;;;;;;;1.30;1.20;;;;;;;19.55;41.04;95125.16;10292315;28;20055;-58
2022/04/01 13:40:48;;;;;;;1.35;1.25;;;;;;;19.53;41.09;95130.16;10292084;28;20054;-58
2022/04/01 13:46:08;;;;;;;1.58;1.23;;;;;;;19.53;40.96;95130.16;10291249;28;20077;-58
2022/04/01 13:51:28;;;;;;;1.92;1.30;;;;;;;19.51;41.00;95135.16;10291766;28;20051;-59
2022/04/01 13:56:47;;;;;;;1.35;1.23;;;;;;;19.51;41.03;95140.56;10304251;28;20054;-58
2022/04/01 14:02:08;;;;;;;1.75;1.27;;;;;;;19.50;41.10;95149.81;10319171;28;20038;-58
2022/04/01 14:07:28;;;;;;;1.40;1.30;;;;;;;19.49;40.99;95147.47;10275484;28;20066;-59
2022/04/01 14:12:47;;;;;;;1.30;1.20;;;;;;;19.48;41.01;95146.69;10281878;28;20042;-58
2022/04/01 14:18:06;;;;;;;1.20;1.10;;;;;;;19.46;41.11;95150.88;10302643;28;20113;-59
2022/04/01 14:23:28;;;;;;;1.25;1.10;;;;;;;19.46;41.01;95162.47;10290080;28;20533;-59
2022/04/01 14:28:48;;;;;;;1.52;1.30;;;;;;;19.45;41.17;95170.94;10219814;29;20055;-57
2022/04/01 14:34:07;;;;;;;1.17;1.08;;;;;;;19.44;41.01;95170.16;10210509;29;20055;-58
2022/04/01 14:39:28;;;;;;;1.25;1.15;;;;;;;19.42;41.01;95167.03;10210491;29;20051;-59
2022/04/01 14:44:48;;;;;;;1.30;1.17;;;;;;;19.41;41.15;95176.28;10210268;29;20426;-58
2022/04/01 14:50:10;;;;;;;1.27;1.17;;;;;;;19.41;41.11;95181.69;10209445;29;20055;-59
2022/04/01 14:55:31;;;;;;;1.45;1.33;;;;;;;19.40;41.06;95187.44;10209646;29;20059;-58
2022/04/01 15:00:51;;;;;;;2.65;2.45;;;;;;;19.34;38.25;95197.75;10210850;29;20047;-58
2022/04/01 15:06:10;;;;;;;1.40;1.30;;;;;;;19.31;40.19;95198.50;10220738;29;20048;-58
2022/04/01 15:11:30;;;;;;;2.15;1.40;;;;;;;19.31;40.96;95210.06;10200228;29;20070;-59
2022/04/01 15:16:49;;;;;;;1.70;1.60;;;;;;;19.32;41.33;95200.81;10198583;29;20058;-57
2022/04/01 15:22:09;;;;;;;2.33;1.70;;;;;;;19.34;41.61;95219.38;10209181;29;20529;-58
2022/04/01 15:27:28;;;;;;;2.85;1.30;;;;;;;19.33;41.73;95212.41;10267214;28;20062;-58
2022/04/01 15:32:48;;;;;;;2.10;1.55;;;;;;;19.34;41.76;95219.38;10288897;28;20414;-58
2022/04/01 15:38:09;;;;;;;1.45;1.33;;;;;;;19.34;41.55;95222.84;10301228;28;20050;-58
2022/04/01 15:43:30;;;;;;;1.95;1.42;;;;;;;19.34;42.02;95230.16;10267377;28;20388;-60
2022/04/01 15:48:49;;;;;;;5.88;1.60;;;;;;;19.33;41.79;95242.91;10288778;28;20051;-59
2022/04/01 15:54:09;;;;;;;1.58;1.48;;;;;;;19.34;41.81;95240.97;10306510;28;20043;-59
2022/04/01 15:59:29;;;;;;;1.45;1.30;;;;;;;19.34;41.99;95246.38;10287669;28;20047;-59
2022/04/01 16:04:57;;;;;;;2.72;1.48;;;;;;;19.37;41.96;95256.47;10288715;28;20065;-59
2022/04/01 16:10:17;;;;;;;3.88;1.50;;;;;;;19.38;41.85;95260.72;10292554;28;20414;-57
2022/04/01 16:15:39;;;;;;;2.10;1.20;;;;;;;19.41;41.75;95261.94;10291219;28;20502;-59
2022/04/01 16:20:59;;;;;;;1.50;1.38;;;;;;;19.41;41.93;95257.31;10289519;28;20134;-58
2022/04/01 16:26:19;;;;;;;2.50;1.58;;;;;;;19.45;42.11;95262.75;10292949;28;20125;-56
2022/04/01 16:31:38;;;;;;;1.40;1.30;;;;;;;19.46;42.09;95275.88;10291812;28;20183;-59
2022/04/01 16:36:58;;;;;;;1.63;1.30;;;;;;;19.50;42.08;95275.94;10291658;28;20055;-58
2022/04/01 16:42:18;;;;;;;1.38;1.27;;;;;;;19.53;42.37;95286.03;10293088;28;20074;-58
2022/04/01 16:47:39;;;;;;;2.40;1.20;;;;;;;19.56;42.24;95288.81;10302812;28;20043;-60
2022/04/01 16:52:59;;;;;;;1.40;1.30;;;;;;;19.61;42.46;95303.94;10306069;28;20043;-59
2022/04/01 16:58:19;;;;;;;1.65;1.40;;;;;;;19.66;42.18;95305.53;10304925;28;20054;-59
2022/04/01 17:03:38;;;;;;;4.70;1.30;;;;;;;19.69;42.56;95300.19;10315225;28;20054;-56
2022/04/01 17:14:36;;;;;;;3.90;1.30;;;;;;;19.79;42.92;95325.88;10301667;28;20098;-58
2022/04/01 17:19:57;;;;;;;2.42;1.30;;;;;;;19.82;42.91;95327.84;10287721;28;20053;-59
2022/04/01 17:25:19;;;;;;;2.78;1.27;;;;;;;19.86;43.07;95336.81;10295979;28;20051;-58
2022/04/01 17:30:38;;;;;;;2.60;1.25;;;;;;;19.92;43.14;95348.09;10290661;28;20054;-59
2022/04/01 17:36:01;;;;;;;1.98;1.17;;;;;;;19.93;43.11;95363.16;10291040;28;20047;-58
2022/04/01 17:41:22;;;;;;;1.48;1.30;;;;;;;19.97;43.00;95360.50;10291292;28;20494;-59
2022/04/01 17:46:44;;;;;;;2.35;1.33;;;;;;;19.98;43.18;95368.25;10288958;28;20442;-59
2022/04/01 17:52:05;;;;;;;1.48;1.20;;;;;;;20.01;43.17;95374.88;10286557;28;20121;-52
2022/04/01 17:57:26;;;;;;;2.80;1.70;;;;;;;20.03;43.34;95386.91;10284756;28;20113;-51
2022/04/01 18:02:48;;;;;;;1.70;1.33;;;;;;;20.06;43.71;95390.78;10271208;28;20832;-52
2022/04/01 18:08:09;;;;;;;2.65;1.30;;;;;;;20.07;43.89;95390.44;10284570;28;20046;-52
2022/04/01 18:13:28;;;;;;;1.52;1.20;;;;;;;20.10;44.00;95407.84;10275383;28;20070;-56
2022/04/01 18:18:49;;;;;;;2.20;1.48;;;;;;;20.10;44.10;95411.31;10289131;28;20043;-55
2022/04/01 18:24:09;;;;;;;3.45;1.33;;;;;;;20.14;44.09;95405.97;10288841;28;20055;-62
2022/04/01 18:29:34;;;;;;;1.95;1.27;;;;;;;20.14;44.35;95422.97;10290224;28;20061;-63
2022/04/01 18:34:58;;;;;;;2.00;1.17;;;;;;;20.14;44.57;95422.97;10275577;28;20418;-59
2022/04/01 18:40:19;;;;;;;5.82;1.52;;;;;;;20.16;44.35;95422.63;10258603;28;20070;-60
2022/04/01 18:45:39;;;;;;;2.05;1.50;;;;;;;20.18;44.21;95431.16;10287604;28;20074;-60
2022/04/01 18:50:59;;;;;;;2.58;1.50;;;;;;;20.19;44.19;95432.72;10288330;28;20043;-60
2022/04/01 18:56:19;;;;;;;5.78;1.77;;;;;;;20.19;44.11;95432.72;10293651;28;20039;-58
2022/04/01 19:01:45;;;;;;;3.67;1.50;;;;;;;20.19;43.89;95440.84;10288869;28;20062;-58
2022/04/01 19:07:20;;;;;;;6.80;1.80;;;;;;;20.20;43.88;95447.03;10301854;28;20046;-59
2022/04/01 19:12:41;;;;;;;3.83;1.90;;;;;;;20.20;43.57;95464.03;10288071;28;20058;-62
2022/04/01 19:18:01;;;;;;;3.53;2.00;;;;;;;20.20;43.24;95468.66;10284199;28;20051;-62
2022/04/01 19:23:24;;;;;;;3.17;2.28;;;;;;;20.21;43.38;95481.81;10264428;28;20039;-61
2022/04/01 19:28:44;;;;;;;3.85;2.10;;;;;;;20.21;43.13;95476.41;10252527;28;20608;-54
2022/04/01 19:34:04;;;;;;;3.47;2.03;;;;;;;20.20;43.43;95480.25;10268397;28;20051;-58
2022/04/01 19:39:25;;;;;;;5.05;2.30;;;;;;;20.22;43.38;95485.31;10255698;28;20047;-60
2022/04/01 19:44:46;;;;;;;2.70;1.75;;;;;;;20.22;43.54;95486.06;10258710;28;20082;-60
2022/04/01 19:50:07;;;;;;;3.85;2.00;;;;;;;20.22;43.49;95483.38;10258910;28;20054;-57
2022/04/01 19:55:27;;;;;;;2.85;1.80;;;;;;;20.22;43.74;95485.31;10286651;28;20059;-59
2022/04/01 20:00:47;;;;;;;4.07;2.00;;;;;;;20.21;43.72;95484.53;10295524;28;20394;-58
2022/04/01 20:06:06;;;;;;;4.68;2.20;;;;;;;20.21;43.63;95489.94;10294748;28;20410;-58
2022/04/01 20:11:26;;;;;;;2.33;1.83;;;;;;;20.22;43.87;95493.41;10293884;28;20070;-58
2022/04/01 20:16:45;;;;;;;5.03;1.92;;;;;;;20.21;43.94;95497.25;10276649;28;20057;-59
2022/04/01 20:22:05;;;;;;;2.03;1.58;;;;;;;20.22;43.83;95498.81;10279936;28;20538;-59
2022/04/01 20:27:26;;;;;;;3.42;2.00;;;;;;;20.22;43.42;95505.00;10288673;28;21746;-59
2022/04/01 20:32:46;;;;;;;2.20;1.90;;;;;;;20.20;43.38;95501.88;10293047;28;20054;-59
2022/04/01 20:38:07;;;;;;;4.05;1.77;;;;;;;20.19;43.36;95503.03;10270834;28;20071;-60
2022/04/01 20:43:26;;;;;;;2.03;1.48;;;;;;;20.18;43.39;95496.06;10282342;28;20576;-59
2022/04/01 20:48:46;;;;;;;1.60;1.50;;;;;;;20.18;43.28;95489.88;10282152;28;20449;-59
2022/04/01 20:54:05;;;;;;;3.50;1.50;;;;;;;20.16;43.30;95498.34;10282142;28;20490;-59
2022/04/01 20:59:25;;;;;;;3.05;1.70;;;;;;;20.16;43.20;95498.34;10282015;28;20058;-60
2022/04/01 21:04:45;;;;;;;2.75;2.00;;;;;;;20.15;43.00;95494.06;10281649;28;20055;-58
2022/04/01 21:10:07;;;;;;;1.92;1.55;;;;;;;20.14;42.78;95500.63;10280029;28;20057;-60
2022/04/01 21:15:26;;;;;;;2.95;1.88;;;;;;;20.12;42.99;95492.09;10281205;28;20543;-60
2022/04/01 21:20:46;;;;;;;2.67;1.80;;;;;;;20.12;41.83;95494.78;10281882;28;20051;-60
2022/04/01 21:31:51;;;;;;;4.40;2.50;;;;;;;20.08;41.68;95494.72;10281508;28;20055;-59
2022/04/01 21:37:11;;;;;;;3.25;2.30;;;;;;;20.07;41.69;95493.16;10290858;28;20066;-59
2022/04/01 21:42:30;;;;;;;3.13;2.08;;;;;;;20.05;41.53;95500.84;10280522;28;20054;-59
2022/04/01 21:47:50;;;;;;;3.25;2.15;;;;;;;20.04;41.63;95504.69;10282584;28;20065;-60
2022/04/01 21:53:12;;;;;;;3.25;2.28;;;;;;;20.02;41.45;95493.44;10291675;28;20722;-60
2022/04/01 21:58:32;;;;;;;2.20;2.00;;;;;;;20.03;41.52;95502.34;10275225;28;20097;-60
2022/04/01 22:03:53;;;;;;;2.80;2.05;;;;;;;20.01;41.46;95493.81;10302978;28;20047;-60
2022/04/01 22:09:14;;;;;;;2.38;1.92;;;;;;;20.00;41.47;95495.72;10302673;28;20046;-59
2022/04/01 22:14:34;;;;;;;4.45;2.17;;;;;;;19.98;41.50;95500.72;10277146;28;20051;-60
2022/04/01 22:19:53;;;;;;;5.00;2.20;;;;;;;19.97;41.34;95517.28;10311550;28;20046;-60
2022/04/01 22:25:12;;;;;;;3.03;2.00;;;;;;;19.97;41.42;95520.00;10290414;28;20062;-60
2022/04/01 22:30:32;;;;;;;2.35;2.15;;;;;;;19.94;41.29;95521.50;10290096;28;20047;-59
2022/04/01 22:35:52;;;;;;;2.67;2.00;;;;;;;19.94;41.41;95521.50;10289413;28;20081;-59
2022/04/01 22:41:12;;;;;;;2.03;1.80;;;;;;;19.92;41.53;95518.38;10268768;28;20068;-59
2022/04/01 22:46:31;;;;;;;2.58;1.85;;;;;;;19.90;41.30;95521.41;10289668;28;20058;-59
2022/04/01 22:57:30;;;;;;;2.60;1.80;;;;;;;19.87;41.42;95511.31;10289022;28;20418;-59
2022/04/01 23:02:49;;;;;;;3.35;1.88;;;;;;;19.86;41.32;95517.09;10288875;28;20050;-60
2022/04/01 23:08:09;;;;;;;2.30;1.80;;;;;;;19.86;41.42;95519.81;10288448;28;20055;-60
2022/04/01 23:13:30;;;;;;;2.60;1.75;;;;;;;19.85;41.43;95524.41;10301910;28;20045;-59
2022/04/01 23:18:49;;;;;;;2.40;1.70;;;;;;;19.84;41.32;95525.56;10291683;28;20410;-60
2022/04/01 23:24:08;;;;;;;1.83;1.60;;;;;;;19.81;41.34;95528.97;10288037;28;20058;-60
2022/04/01 23:29:28;;;;;;;2.40;1.73;;;;;;;19.79;41.40;95531.22;10299529;28;20054;-59
2022/04/01 23:34:47;;;;;;;2.25;1.95;;;;;;;19.77;41.22;95528.09;10288680;28;20050;-60
2022/04/01 23:40:07;;;;;;;2.60;1.70;;;;;;;19.77;41.34;95521.94;10287887;28;20414;-59
2022/04/01 23:45:28;;;;;;;2.10;1.60;;;;;;;19.76;41.25;95518.44;10285736;28;20150;-59
2022/04/01 23:50:48;;;;;;;2.38;1.60;;;;;;;19.73;41.29;95514.53;10301004;28;20046;-60
2022/04/01 23:56:07;;;;;;;2.03;1.70;;;;;;;19.72;41.29;95515.69;10286122;28;20066;-59
